Terminal Aerodrome Forecast
Issued by NWS

Home | Current Version | Previous Version | Text Only | Print | Product List | Glossary On
Versions: 1 2 3 4 5 6 7 8 9 10 11 12 13 14 15 16 17 18 19 20 21 22 23 24 25 26 27 28 29 30 31 32 33 34 35 36 37
000
FTUS45 KBOU 191801 AAA
TAFAPA
TAF AMD
KAPA 191801Z 1918/2018 VRB05KT P6SM FEW130 SCT220
     FM191830 34007KT P6SM FEW130 BKN220
     FM192000 02009KT P6SM FEW130 BKN220
     FM192100 06008KT P6SM FEW130 BKN220
     FM200100 15009KT P6SM FEW130 SCT220
     FM200500 18007KT P6SM FEW220
     FM201700 15008KT P6SM FEW120 SCT220=

USA.gov is the U.S. government's official web portal to all federal, state and local government web resources and services.